sensor_id;sensor_type;location;lat;lon;timestamp;pressure;altitude;pressure_sealevel;temperature
8533;BMP280;4304;53.876;10.662;2024-03-06T00:01:09;102093.34;;;4.13
8533;BMP280;4304;53.876;10.662;2024-03-06T00:03:35;102096.88;;;4.09
8533;BMP280;4304;53.876;10.662;2024-03-06T00:06:00;102094.28;;;4.10
8533;BMP280;4304;53.876;10.662;2024-03-06T00:08:25;102098.63;;;4.08
8533;BMP280;4304;53.876;10.662;2024-03-06T00:10:51;102099.47;;;4.09
8533;BMP280;4304;53.876;10.662;2024-03-06T00:13:16;102103.03;;;4.02
8533;BMP280;4304;53.876;10.662;2024-03-06T00:15:42;102105.56;;;4.03
8533;BMP280;4304;53.876;10.662;2024-03-06T00:18:07;102119.16;;;4.11
8533;BMP280;4304;53.876;10.662;2024-03-06T00:20:33;102125.91;;;4.15
8533;BMP280;4304;53.876;10.662;2024-03-06T00:22:58;102121.75;;;4.10
8533;BMP280;4304;53.876;10.662;2024-03-06T00:25:24;102122.41;;;4.18
8533;BMP280;4304;53.876;10.662;2024-03-06T00:27:49;102125.97;;;4.12
8533;BMP280;4304;53.876;10.662;2024-03-06T00:30:15;102119.81;;;4.19
8533;BMP280;4304;53.876;10.662;2024-03-06T00:32:40;102132.66;;;4.21
8533;BMP280;4304;53.876;10.662;2024-03-06T00:35:05;102125.88;;;4.17
8533;BMP280;4304;53.876;10.662;2024-03-06T00:37:31;102125.16;;;4.10
8533;BMP280;4304;53.876;10.662;2024-03-06T00:39:56;102131.03;;;4.17
8533;BMP280;4304;53.876;10.662;2024-03-06T00:42:21;102129.34;;;4.14
8533;BMP280;4304;53.876;10.662;2024-03-06T00:44:47;102130.22;;;4.15
8533;BMP280;4304;53.876;10.662;2024-03-06T00:47:12;102130.19;;;4.16
8533;BMP280;4304;53.876;10.662;2024-03-06T00:49:38;102121.72;;;4.11
8533;BMP280;4304;53.876;10.662;2024-03-06T00:52:04;102133.56;;;4.20
8533;BMP280;4304;53.876;10.662;2024-03-06T00:54:29;102127.66;;;4.15
8533;BMP280;4304;53.876;10.662;2024-03-06T00:56:54;102135.22;;;4.21
8533;BMP280;4304;53.876;10.662;2024-03-06T00:59:20;102141.13;;;4.25
8533;BMP280;4304;53.876;10.662;2024-03-06T01:01:45;102137.78;;;4.22
8533;BMP280;4304;53.876;10.662;2024-03-06T01:04:11;102150.50;;;4.29
8533;BMP280;4304;53.876;10.662;2024-03-06T01:06:36;102150.69;;;4.19
8533;BMP280;4304;53.876;10.662;2024-03-06T01:09:01;102137.09;;;4.13
8533;BMP280;4304;53.876;10.662;2024-03-06T01:11:27;102144.63;;;4.23
8533;BMP280;4304;53.876;10.662;2024-03-06T01:13:53;102151.75;;;4.09
8533;BMP280;4304;53.876;10.662;2024-03-06T01:16:18;102157.56;;;4.19
8533;BMP280;4304;53.876;10.662;2024-03-06T01:18:44;102160.13;;;4.19
8533;BMP280;4304;53.876;10.662;2024-03-06T01:21:10;102157.53;;;4.20
8533;BMP280;4304;53.876;10.662;2024-03-06T01:23:35;102165.34;;;4.16
8533;BMP280;4304;53.876;10.662;2024-03-06T01:26:00;102167.56;;;4.33
8533;BMP280;4304;53.876;10.662;2024-03-06T01:28:25;102188.50;;;4.16
8533;BMP280;4304;53.876;10.662;2024-03-06T01:30:51;102187.38;;;4.28
8533;BMP280;4304;53.876;10.662;2024-03-06T01:33:16;102184.97;;;4.23
8533;BMP280;4304;53.876;10.662;2024-03-06T01:35:42;102190.00;;;4.25
8533;BMP280;4304;53.876;10.662;2024-03-06T01:38:07;102196.91;;;4.23
8533;BMP280;4304;53.876;10.662;2024-03-06T01:40:34;102203.19;;;4.09
8533;BMP280;4304;53.876;10.662;2024-03-06T01:42:59;102196.41;;;4.05
8533;BMP280;4304;53.876;10.662;2024-03-06T01:45:26;102199.78;;;4.09
8533;BMP280;4304;53.876;10.662;2024-03-06T01:47:51;102207.25;;;4.21
8533;BMP280;4304;53.876;10.662;2024-03-06T01:50:17;102207.47;;;4.10
8533;BMP280;4304;53.876;10.662;2024-03-06T01:52:42;102208.34;;;4.09
8533;BMP280;4304;53.876;10.662;2024-03-06T01:55:09;102205.72;;;4.11
8533;BMP280;4304;53.876;10.662;2024-03-06T01:57:35;102216.06;;;4.08
8533;BMP280;4304;53.876;10.662;2024-03-06T02:00:03;102212.53;;;4.15
8533;BMP280;4304;53.876;10.662;2024-03-06T02:02:29;102215.72;;;4.27
8533;BMP280;4304;53.876;10.662;2024-03-06T02:04:55;102215.66;;;4.30
8533;BMP280;4304;53.876;10.662;2024-03-06T02:07:23;102207.25;;;4.21
8533;BMP280;4304;53.876;10.662;2024-03-06T02:09:49;102201.19;;;4.26
8533;BMP280;4304;53.876;10.662;2024-03-06T02:12:14;102207.06;;;4.32
8533;BMP280;4304;53.876;10.662;2024-03-06T02:14:40;102212.97;;;4.37
8533;BMP280;4304;53.876;10.662;2024-03-06T02:17:05;102206.41;;;4.22
8533;BMP280;4304;53.876;10.662;2024-03-06T02:19:57;102214.19;;;4.17
8533;BMP280;4304;53.876;10.662;2024-03-06T02:22:25;102209.19;;;4.10
8533;BMP280;4304;53.876;10.662;2024-03-06T02:24:51;102201.41;;;4.13
8533;BMP280;4304;53.876;10.662;2024-03-06T02:27:16;102205.75;;;4.09
8533;BMP280;4304;53.876;10.662;2024-03-06T02:29:42;102201.31;;;4.19
8533;BMP280;4304;53.876;10.662;2024-03-06T02:32:07;102208.22;;;4.17
8533;BMP280;4304;53.876;10.662;2024-03-06T02:34:33;102210.84;;;4.14
8533;BMP280;4304;53.876;10.662;2024-03-06T02:36:59;102199.38;;;4.29
8533;BMP280;4304;53.876;10.662;2024-03-06T02:39:24;102203.97;;;4.13
8533;BMP280;4304;53.876;10.662;2024-03-06T02:41:50;102204.78;;;4.16
8533;BMP280;4304;53.876;10.662;2024-03-06T02:44:15;102203.03;;;4.18
8533;BMP280;4304;53.876;10.662;2024-03-06T02:46:46;102203.72;;;4.27
8533;BMP280;4304;53.876;10.662;2024-03-06T02:49:12;102203.97;;;4.13
8533;BMP280;4304;53.876;10.662;2024-03-06T02:51:37;102210.00;;;4.13
8533;BMP280;4304;53.876;10.662;2024-03-06T02:54:09;102203.94;;;4.16
8533;BMP280;4304;53.876;10.662;2024-03-06T02:56:34;102201.31;;;4.19
8533;BMP280;4304;53.876;10.662;2024-03-06T02:59:00;102212.31;;;4.26
8533;BMP280;4304;53.876;10.662;2024-03-06T03:01:28;102211.44;;;4.27
8533;BMP280;4304;53.876;10.662;2024-03-06T03:03:55;102224.81;;;3.99
8533;BMP280;4304;53.876;10.662;2024-03-06T03:06:20;102213.19;;;4.24
8533;BMP280;4304;53.876;10.662;2024-03-06T03:08:46;102219.41;;;4.13
8533;BMP280;4304;53.876;10.662;2024-03-06T03:11:12;102226.00;;;4.27
8533;BMP280;4304;53.876;10.662;2024-03-06T03:13:37;102229.59;;;4.20
8533;BMP280;4304;53.876;10.662;2024-03-06T03:16:03;102227.13;;;4.13
8533;BMP280;4304;53.876;10.662;2024-03-06T03:18:28;102237.28;;;4.22
8533;BMP280;4304;53.876;10.662;2024-03-06T03:20:54;102232.88;;;4.28
8533;BMP280;4304;53.876;10.662;2024-03-06T03:23:19;102239.03;;;4.20
8533;BMP280;4304;53.876;10.662;2024-03-06T03:25:47;102246.56;;;4.28
8533;BMP280;4304;53.876;10.662;2024-03-06T03:28:14;102240.56;;;4.29
8533;BMP280;4304;53.876;10.662;2024-03-06T03:30:39;102234.69;;;4.22
8533;BMP280;4304;53.876;10.662;2024-03-06T03:33:04;102236.47;;;4.20
8533;BMP280;4304;53.876;10.662;2024-03-06T03:35:30;102249.34;;;4.18
8533;BMP280;4304;53.876;10.662;2024-03-06T03:37:56;102242.25;;;4.29
8533;BMP280;4304;53.876;10.662;2024-03-06T03:40:22;102239.59;;;4.35
8533;BMP280;4304;53.876;10.662;2024-03-06T03:42:48;102237.06;;;4.32
8533;BMP280;4304;53.876;10.662;2024-03-06T03:45:13;102243.25;;;4.22
8533;BMP280;4304;53.876;10.662;2024-03-06T03:47:40;102248.19;;;4.34
8533;BMP280;4304;53.876;10.662;2024-03-06T03:50:06;102235.22;;;4.40
8533;BMP280;4304;53.876;10.662;2024-03-06T03:52:33;102255.72;;;4.44
8533;BMP280;4304;53.876;10.662;2024-03-06T03:54:59;102248.81;;;4.46
8533;BMP280;4304;53.876;10.662;2024-03-06T03:57:24;102244.50;;;4.47
8533;BMP280;4304;53.876;10.662;2024-03-06T03:59:49;102242.63;;;4.56
8533;BMP280;4304;53.876;10.662;2024-03-06T04:02:16;102253.75;;;4.57
8533;BMP280;4304;53.876;10.662;2024-03-06T04:04:41;102254.63;;;4.57
8533;BMP280;4304;53.876;10.662;2024-03-06T04:07:07;102254.59;;;4.59
8533;BMP280;4304;53.876;10.662;2024-03-06T04:09:32;102240.84;;;4.58
8533;BMP280;4304;53.876;10.662;2024-03-06T04:12:01;102246.25;;;4.46
8533;BMP280;4304;53.876;10.662;2024-03-06T04:14:27;102260.06;;;4.42
8533;BMP280;4304;53.876;10.662;2024-03-06T04:16:52;102250.84;;;4.31
8533;BMP280;4304;53.876;10.662;2024-03-06T04:19:17;102262.72;;;4.36
8533;BMP280;4304;53.876;10.662;2024-03-06T04:21:43;102277.09;;;4.48
8533;BMP280;4304;53.876;10.662;2024-03-06T04:24:09;102272.88;;;4.44
8533;BMP280;4304;53.876;10.662;2024-03-06T04:26:35;102273.56;;;4.53
8533;BMP280;4304;53.876;10.662;2024-03-06T04:29:00;102287.72;;;4.30
8533;BMP280;4304;53.876;10.662;2024-03-06T04:31:25;102273.97;;;4.32
8533;BMP280;4304;53.876;10.662;2024-03-06T04:33:51;102273.00;;;4.38
8533;BMP280;4304;53.876;10.662;2024-03-06T04:36:16;102280.59;;;4.44
8533;BMP280;4304;53.876;10.662;2024-03-06T04:38:42;102275.56;;;4.38
8533;BMP280;4304;53.876;10.662;2024-03-06T04:41:07;102274.78;;;4.34
8533;BMP280;4304;53.876;10.662;2024-03-06T04:43:32;102285.03;;;4.37
8533;BMP280;4304;53.876;10.662;2024-03-06T04:45:58;102288.41;;;4.41
8533;BMP280;4304;53.876;10.662;2024-03-06T04:48:23;102281.50;;;4.43
8533;BMP280;4304;53.876;10.662;2024-03-06T04:50:49;102297.97;;;4.33
8533;BMP280;4304;53.876;10.662;2024-03-06T04:53:14;102292.94;;;4.25
8533;BMP280;4304;53.876;10.662;2024-03-06T04:55:39;102292.13;;;4.23
8533;BMP280;4304;53.876;10.662;2024-03-06T04:58:05;102293.06;;;4.20
8533;BMP280;4304;53.876;10.662;2024-03-06T05:00:31;102292.84;;;4.31
8533;BMP280;4304;53.876;10.662;2024-03-06T05:02:56;102290.34;;;4.27
8533;BMP280;4304;53.876;10.662;2024-03-06T05:05:22;102293.03;;;4.21
8533;BMP280;4304;53.876;10.662;2024-03-06T05:07:48;102285.38;;;4.17
8533;BMP280;4304;53.876;10.662;2024-03-06T05:10:13;102296.44;;;4.22
8533;BMP280;4304;53.876;10.662;2024-03-06T05:12:40;102306.78;;;4.19
8533;BMP280;4304;53.876;10.662;2024-03-06T05:15:05;102315.34;;;4.19
8533;BMP280;4304;53.876;10.662;2024-03-06T05:17:31;102312.75;;;4.21
8533;BMP280;4304;53.876;10.662;2024-03-06T05:19:57;102310.97;;;4.24
8533;BMP280;4304;53.876;10.662;2024-03-06T05:22:22;102310.97;;;4.24
8533;BMP280;4304;53.876;10.662;2024-03-06T05:24:48;102316.25;;;4.17
8533;BMP280;4304;53.876;10.662;2024-03-06T05:27:13;102311.84;;;4.24
8533;BMP280;4304;53.876;10.662;2024-03-06T05:29:42;102308.34;;;4.27
8533;BMP280;4304;53.876;10.662;2024-03-06T05:32:08;102313.59;;;4.23
8533;BMP280;4304;53.876;10.662;2024-03-06T05:34:34;102313.03;;;4.03
8533;BMP280;4304;53.876;10.662;2024-03-06T05:37:01;102319.84;;;4.07
8533;BMP280;4304;53.876;10.662;2024-03-06T05:39:29;102323.31;;;4.04
8533;BMP280;4304;53.876;10.662;2024-03-06T05:41:55;102313.16;;;3.98
8533;BMP280;4304;53.876;10.662;2024-03-06T05:44:20;102318.28;;;4.00
8533;BMP280;4304;53.876;10.662;2024-03-06T05:46:46;102315.66;;;4.01
8533;BMP280;4304;53.876;10.662;2024-03-06T05:49:15;102311.31;;;4.05
8533;BMP280;4304;53.876;10.662;2024-03-06T05:51:40;102320.84;;;3.98
8533;BMP280;4304;53.876;10.662;2024-03-06T05:54:05;102331.88;;;4.06
8533;BMP280;4304;53.876;10.662;2024-03-06T05:56:34;102326.78;;;4.03
8533;BMP280;4304;53.876;10.662;2024-03-06T05:58:59;102331.91;;;4.05
8533;BMP280;4304;53.876;10.662;2024-03-06T06:01:30;102331.94;;;4.02
8533;BMP280;4304;53.876;10.662;2024-03-06T06:03:55;102342.00;;;4.17
8533;BMP280;4304;53.876;10.662;2024-03-06T06:06:21;102346.22;;;4.19
8533;BMP280;4304;53.876;10.662;2024-03-06T06:08:46;102341.31;;;4.06
8533;BMP280;4304;53.876;10.662;2024-03-06T06:11:11;102347.84;;;4.26
8533;BMP280;4304;53.876;10.662;2024-03-06T06:13:38;102359.84;;;4.25
8533;BMP280;4304;53.876;10.662;2024-03-06T06:16:05;102360.09;;;4.11
8533;BMP280;4304;53.876;10.662;2024-03-06T06:18:31;102365.22;;;4.11
8533;BMP280;4304;53.876;10.662;2024-03-06T06:20:57;102366.13;;;4.10
8533;BMP280;4304;53.876;10.662;2024-03-06T06:23:23;102369.38;;;4.19
8533;BMP280;4304;53.876;10.662;2024-03-06T06:25:48;102375.25;;;4.28
8533;BMP280;4304;53.876;10.662;2024-03-06T06:28:13;102366.66;;;4.29
8533;BMP280;4304;53.876;10.662;2024-03-06T06:30:39;102380.69;;;4.09
8533;BMP280;4304;53.876;10.662;2024-03-06T06:33:04;102377.34;;;4.04
8533;BMP280;4304;53.876;10.662;2024-03-06T06:35:30;102387.34;;;4.22
8533;BMP280;4304;53.876;10.662;2024-03-06T06:37:55;102389.09;;;4.22
8533;BMP280;4304;53.876;10.662;2024-03-06T06:40:21;102384.72;;;4.25
8533;BMP280;4304;53.876;10.662;2024-03-06T06:42:48;102399.88;;;4.43
8533;BMP280;4304;53.876;10.662;2024-03-06T06:45:21;102400.78;;;4.40
8533;BMP280;4304;53.876;10.662;2024-03-06T06:47:48;102404.38;;;4.30
8533;BMP280;4304;53.876;10.662;2024-03-06T06:50:13;102409.59;;;4.27
8533;BMP280;4304;53.876;10.662;2024-03-06T06:52:39;102417.06;;;4.42
8533;BMP280;4304;53.876;10.662;2024-03-06T06:55:05;102417.97;;;4.38
8533;BMP280;4304;53.876;10.662;2024-03-06T06:57:31;102420.47;;;4.43
8533;BMP280;4304;53.876;10.662;2024-03-06T06:59:58;102427.44;;;4.36
8533;BMP280;4304;53.876;10.662;2024-03-06T07:02:24;102424.06;;;4.33
8533;BMP280;4304;53.876;10.662;2024-03-06T07:04:50;102435.25;;;4.29
8533;BMP280;4304;53.876;10.662;2024-03-06T07:07:15;102435.34;;;4.26
8533;BMP280;4304;53.876;10.662;2024-03-06T07:09:40;102448.91;;;4.34
8533;BMP280;4304;53.876;10.662;2024-03-06T07:12:06;102444.53;;;4.40
8533;BMP280;4304;53.876;10.662;2024-03-06T07:14:33;102451.22;;;4.52
8533;BMP280;4304;53.876;10.662;2024-03-06T07:16:58;102456.50;;;4.43
8533;BMP280;4304;53.876;10.662;2024-03-06T07:19:23;102463.31;;;4.45
8533;BMP280;4304;53.876;10.662;2024-03-06T07:21:49;102469.41;;;4.41
8533;BMP280;4304;53.876;10.662;2024-03-06T07:24:14;102471.91;;;4.46
8533;BMP280;4304;53.876;10.662;2024-03-06T07:26:39;102479.53;;;4.50
8533;BMP280;4304;53.876;10.662;2024-03-06T07:29:05;102485.53;;;4.52
8533;BMP280;4304;53.876;10.662;2024-03-06T07:31:38;102483.13;;;4.40
8533;BMP280;4304;53.876;10.662;2024-03-06T07:34:04;102495.84;;;4.52
8533;BMP280;4304;53.876;10.662;2024-03-06T07:36:32;102494.16;;;4.48
8533;BMP280;4304;53.876;10.662;2024-03-06T07:38:57;102504.25;;;4.63
8533;BMP280;4304;53.876;10.662;2024-03-06T07:41:22;102507.72;;;4.61
8533;BMP280;4304;53.876;10.662;2024-03-06T07:43:48;102504.94;;;4.72
8533;BMP280;4304;53.876;10.662;2024-03-06T07:46:13;102508.56;;;4.61
8533;BMP280;4304;53.876;10.662;2024-03-06T07:48:42;102509.19;;;4.75
8533;BMP280;4304;53.876;10.662;2024-03-06T07:51:09;102503.97;;;4.79
8533;BMP280;4304;53.876;10.662;2024-03-06T07:53:34;102514.44;;;4.69
8533;BMP280;4304;53.876;10.662;2024-03-06T07:56:00;102520.56;;;4.64
8533;BMP280;4304;53.876;10.662;2024-03-06T07:58:25;102526.44;;;4.70
8533;BMP280;4304;53.876;10.662;2024-03-06T08:00:52;102527.28;;;4.73
8533;BMP280;4304;53.876;10.662;2024-03-06T08:03:24;102534.13;;;4.73
8533;BMP280;4304;53.876;10.662;2024-03-06T08:05:51;102528.06;;;4.77
8533;BMP280;4304;53.876;10.662;2024-03-06T08:08:18;102529.66;;;4.84
8533;BMP280;4304;53.876;10.662;2024-03-06T08:10:43;102535.81;;;4.75
8533;BMP280;4304;53.876;10.662;2024-03-06T08:13:09;102539.13;;;4.83
8533;BMP280;4304;53.876;10.662;2024-03-06T08:15:35;102544.50;;;4.68
8533;BMP280;4304;53.876;10.662;2024-03-06T08:18:00;102546.91;;;4.79
8533;BMP280;4304;53.876;10.662;2024-03-06T08:20:25;102548.53;;;4.84
8533;BMP280;4304;53.876;10.662;2024-03-06T08:22:52;102558.72;;;4.92
8533;BMP280;4304;53.876;10.662;2024-03-06T08:25:18;102566.84;;;4.65
8533;BMP280;4304;53.876;10.662;2024-03-06T08:27:43;102569.16;;;4.83
8533;BMP280;4304;53.876;10.662;2024-03-06T08:30:09;102571.69;;;4.86
8533;BMP280;4304;53.876;10.662;2024-03-06T08:32:35;102563.16;;;4.82
8533;BMP280;4304;53.876;10.662;2024-03-06T08:35:11;102579.47;;;4.83
8533;BMP280;4304;53.876;10.662;2024-03-06T08:37:40;102567.38;;;4.86
8533;BMP280;4304;53.876;10.662;2024-03-06T08:40:09;102566.84;;;4.66
8533;BMP280;4304;53.876;10.662;2024-03-06T08:42:45;102582.03;;;4.84
8533;BMP280;4304;53.876;10.662;2024-03-06T08:45:12;102588.00;;;4.86
8533;BMP280;4304;53.876;10.662;2024-03-06T08:47:38;102589.78;;;4.81
8533;BMP280;4304;53.876;10.662;2024-03-06T08:50:03;102584.69;;;4.80
8533;BMP280;4304;53.876;10.662;2024-03-06T08:52:29;102590.50;;;4.91
8533;BMP280;4304;53.876;10.662;2024-03-06T08:54:56;102603.41;;;4.89
8533;BMP280;4304;53.876;10.662;2024-03-06T08:57:22;102586.06;;;5.02
8533;BMP280;4304;53.876;10.662;2024-03-06T08:59:47;102600.84;;;4.88
8533;BMP280;4304;53.876;10.662;2024-03-06T09:02:15;102607.19;;;4.66
8533;BMP280;4304;53.876;10.662;2024-03-06T09:04:41;102608.06;;;4.65
8533;BMP280;4304;53.876;10.662;2024-03-06T09:07:07;102607.88;;;4.80
8533;BMP280;4304;53.876;10.662;2024-03-06T09:09:32;102602.53;;;4.92
8533;BMP280;4304;53.876;10.662;2024-03-06T09:12:08;102604.22;;;4.93
8533;BMP280;4304;53.876;10.662;2024-03-06T09:14:37;102617.06;;;4.94
8533;BMP280;4304;53.876;10.662;2024-03-06T09:17:04;102607.72;;;4.89
8533;BMP280;4304;53.876;10.662;2024-03-06T09:19:30;102606.16;;;4.79
8533;BMP280;4304;53.876;10.662;2024-03-06T09:21:55;102607.56;;;4.98
8533;BMP280;4304;53.876;10.662;2024-03-06T09:24:22;102620.47;;;4.96
8533;BMP280;4304;53.876;10.662;2024-03-06T09:26:49;102625.50;;;5.05
8533;BMP280;4304;53.876;10.662;2024-03-06T09:29:14;102625.56;;;5.01
8533;BMP280;4304;53.876;10.662;2024-03-06T09:31:39;102625.28;;;5.18
8533;BMP280;4304;53.876;10.662;2024-03-06T09:34:05;102625.13;;;5.27
8533;BMP280;4304;53.876;10.662;2024-03-06T09:36:30;102631.47;;;5.08
8533;BMP280;4304;53.876;10.662;2024-03-06T09:38:58;102629.72;;;5.09
8533;BMP280;4304;53.876;10.662;2024-03-06T09:41:23;102633.97;;;5.14
8533;BMP280;4304;53.876;10.662;2024-03-06T09:43:49;102630.53;;;5.12
8533;BMP280;4304;53.876;10.662;2024-03-06T09:46:14;102632.31;;;5.07
8533;BMP280;4304;53.876;10.662;2024-03-06T09:48:46;102640.81;;;5.14
8533;BMP280;4304;53.876;10.662;2024-03-06T09:51:11;102645.13;;;5.13
8533;BMP280;4304;53.876;10.662;2024-03-06T09:53:37;102635.66;;;5.14
8533;BMP280;4304;53.876;10.662;2024-03-06T09:56:04;102650.69;;;5.42
8533;BMP280;4304;53.876;10.662;2024-03-06T09:58:31;102657.91;;;5.73
8533;BMP280;4304;53.876;10.662;2024-03-06T10:00:56;102657.25;;;6.51
8533;BMP280;4304;53.876;10.662;2024-03-06T10:03:23;102671.41;;;6.32
8533;BMP280;4304;53.876;10.662;2024-03-06T10:05:48;102677.53;;;6.27
8533;BMP280;4304;53.876;10.662;2024-03-06T10:08:13;102684.03;;;6.47
8533;BMP280;4304;53.876;10.662;2024-03-06T10:10:41;102688.44;;;6.81
8533;BMP280;4304;53.876;10.662;2024-03-06T10:13:07;102690.25;;;6.78
8533;BMP280;4304;53.876;10.662;2024-03-06T10:15:32;102706.66;;;6.77
8533;BMP280;4304;53.876;10.662;2024-03-06T10:18:14;102707.81;;;6.62
8533;BMP280;4304;53.876;10.662;2024-03-06T10:20:40;102698.28;;;6.22
8533;BMP280;4304;53.876;10.662;2024-03-06T10:23:08;102700.50;;;5.96
8533;BMP280;4304;53.876;10.662;2024-03-06T10:25:34;102684.03;;;6.02
8533;BMP280;4304;53.876;10.662;2024-03-06T10:28:07;102685.84;;;5.97
8533;BMP280;4304;53.876;10.662;2024-03-06T10:30:41;102693.34;;;6.10
8533;BMP280;4304;53.876;10.662;2024-03-06T10:33:08;102683.44;;;5.88
8533;BMP280;4304;53.876;10.662;2024-03-06T10:35:37;102695.75;;;6.21
8533;BMP280;4304;53.876;10.662;2024-03-06T10:38:03;102686.66;;;6.00
8533;BMP280;4304;53.876;10.662;2024-03-06T10:40:34;102688.13;;;6.13
8533;BMP280;4304;53.876;10.662;2024-03-06T10:43:00;102693.38;;;6.09
8533;BMP280;4304;53.876;10.662;2024-03-06T10:48:03;102691.72;;;6.06
8533;BMP280;4304;53.876;10.662;2024-03-06T10:50:29;102698.38;;;6.18
8533;BMP280;4304;53.876;10.662;2024-03-06T10:52:54;102703.72;;;6.07
8533;BMP280;4304;53.876;10.662;2024-03-06T10:55:21;102701.25;;;6.03
8533;BMP280;4304;53.876;10.662;2024-03-06T10:57:47;102698.78;;;5.95
8533;BMP280;4304;53.876;10.662;2024-03-06T11:00:14;102686.81;;;5.93
8533;BMP280;4304;53.876;10.662;2024-03-06T11:02:46;102699.16;;;6.21
8533;BMP280;4304;53.876;10.662;2024-03-06T11:05:14;102700.47;;;5.98
8533;BMP280;4304;53.876;10.662;2024-03-06T11:07:39;102701.97;;;6.09
8533;BMP280;4304;53.876;10.662;2024-03-06T11:10:05;102695.66;;;6.24
8533;BMP280;4304;53.876;10.662;2024-03-06T11:12:37;102702.28;;;6.38
8533;BMP280;4304;53.876;10.662;2024-03-06T11:15:18;102705.13;;;5.78
8533;BMP280;4304;53.876;10.662;2024-03-06T11:17:45;102700.66;;;5.88
8533;BMP280;4304;53.876;10.662;2024-03-06T11:20:15;102701.34;;;5.97
8533;BMP280;4304;53.876;10.662;2024-03-06T11:28:35;102700.66;;;5.86
8533;BMP280;4304;53.876;10.662;2024-03-06T11:33:38;102701.78;;;5.70
8533;BMP280;4304;53.876;10.662;2024-03-06T11:36:23;102703.19;;;5.91
8533;BMP280;4304;53.876;10.662;2024-03-06T11:38:57;102709.31;;;5.84
8533;BMP280;4304;53.876;10.662;2024-03-06T11:41:25;102717.13;;;5.79
8533;BMP280;4304;53.876;10.662;2024-03-06T11:43:51;102717.09;;;5.81
8533;BMP280;4304;53.876;10.662;2024-03-06T11:46:21;102718.09;;;5.74
8533;BMP280;4304;53.876;10.662;2024-03-06T11:48:54;102716.94;;;5.90
8533;BMP280;4304;53.876;10.662;2024-03-06T11:51:20;102709.72;;;6.09
8533;BMP280;4304;53.876;10.662;2024-03-06T11:53:45;102721.47;;;6.24
8533;BMP280;4304;53.876;10.662;2024-03-06T11:56:14;102726.38;;;6.37
8533;BMP280;4304;53.876;10.662;2024-03-06T11:58:39;102719.59;;;5.87
8533;BMP280;4304;53.876;10.662;2024-03-06T12:01:04;102721.22;;;5.92
8533;BMP280;4304;53.876;10.662;2024-03-06T12:03:30;102717.63;;;6.00
8533;BMP280;4304;53.876;10.662;2024-03-06T12:05:55;102721.31;;;5.86
8533;BMP280;4304;53.876;10.662;2024-03-06T12:08:21;102719.72;;;5.79
8533;BMP280;4304;53.876;10.662;2024-03-06T12:10:46;102715.44;;;5.78
8533;BMP280;4304;53.876;10.662;2024-03-06T12:13:14;102712.38;;;6.05
8533;BMP280;4304;53.876;10.662;2024-03-06T12:15:42;102719.94;;;6.14
8533;BMP280;4304;53.876;10.662;2024-03-06T12:18:09;102729.16;;;5.82
8533;BMP280;4304;53.876;10.662;2024-03-06T12:20:34;102723.91;;;5.85
8533;BMP280;4304;53.876;10.662;2024-03-06T12:23:01;102733.09;;;6.00
8533;BMP280;4304;53.876;10.662;2024-03-06T12:25:27;102717.66;;;5.97
8533;BMP280;4304;53.876;10.662;2024-03-06T12:27:53;102738.03;;;6.12
8533;BMP280;4304;53.876;10.662;2024-03-06T12:32:58;102731.28;;;6.05
8533;BMP280;4304;53.876;10.662;2024-03-06T12:35:25;102727.38;;;5.85
8533;BMP280;4304;53.876;10.662;2024-03-06T12:37:51;102717.91;;;5.84
8533;BMP280;4304;53.876;10.662;2024-03-06T12:40:16;102723.13;;;5.80
8533;BMP280;4304;53.876;10.662;2024-03-06T12:42:42;102723.03;;;5.87
8533;BMP280;4304;53.876;10.662;2024-03-06T12:45:08;102726.00;;;6.14
8533;BMP280;4304;53.876;10.662;2024-03-06T12:47:40;102718.41;;;6.04
8533;BMP280;4304;53.876;10.662;2024-03-06T12:50:06;102712.19;;;6.15
8533;BMP280;4304;53.876;10.662;2024-03-06T12:52:33;102719.28;;;6.04
8533;BMP280;4304;53.876;10.662;2024-03-06T12:54:59;102717.25;;;6.20
8533;BMP280;4304;53.876;10.662;2024-03-06T12:57:24;102709.66;;;6.12
8533;BMP280;4304;53.876;10.662;2024-03-06T12:59:50;102707.72;;;5.78
8533;BMP280;4304;53.876;10.662;2024-03-06T13:02:15;102715.09;;;5.97
8533;BMP280;4304;53.876;10.662;2024-03-06T13:04:41;102716.59;;;6.09
8533;BMP280;4304;53.876;10.662;2024-03-06T13:07:06;102704.16;;;5.84
8533;BMP280;4304;53.876;10.662;2024-03-06T13:09:31;102713.25;;;6.04
8533;BMP280;4304;53.876;10.662;2024-03-06T13:11:57;102721.09;;;5.99
8533;BMP280;4304;53.876;10.662;2024-03-06T13:14:22;102714.41;;;5.88
8533;BMP280;4304;53.876;10.662;2024-03-06T13:16:47;102701.78;;;5.73
8533;BMP280;4304;53.876;10.662;2024-03-06T13:19:12;102711.69;;;5.95
8533;BMP280;4304;53.876;10.662;2024-03-06T13:21:38;102712.69;;;5.89
8533;BMP280;4304;53.876;10.662;2024-03-06T13:24:04;102718.88;;;5.79
8533;BMP280;4304;53.876;10.662;2024-03-06T13:26:29;102712.16;;;5.67
8533;BMP280;4304;53.876;10.662;2024-03-06T13:28:55;102725.88;;;5.68
8533;BMP280;4304;53.876;10.662;2024-03-06T13:31:20;102720.94;;;5.56
8533;BMP280;4304;53.876;10.662;2024-03-06T13:33:45;102724.06;;;5.76
8533;BMP280;4304;53.876;10.662;2024-03-06T13:36:11;102715.53;;;5.71
8533;BMP280;4304;53.876;10.662;2024-03-06T13:38:37;102722.16;;;5.88
8533;BMP280;4304;53.876;10.662;2024-03-06T13:41:02;102730.00;;;5.81
8533;BMP280;4304;53.876;10.662;2024-03-06T13:43:28;102723.19;;;5.78
8533;BMP280;4304;53.876;10.662;2024-03-06T13:45:54;102730.75;;;5.87
8533;BMP280;4304;53.876;10.662;2024-03-06T13:48:19;102732.91;;;6.11
8533;BMP280;4304;53.876;10.662;2024-03-06T13:50:45;102727.22;;;5.93
8533;BMP280;4304;53.876;10.662;2024-03-06T13:53:11;102726.50;;;5.85
8533;BMP280;4304;53.876;10.662;2024-03-06T13:55:36;102729.63;;;6.03
8533;BMP280;4304;53.876;10.662;2024-03-06T13:58:02;102730.53;;;6.00
8533;BMP280;4304;53.876;10.662;2024-03-06T14:00:27;102731.72;;;5.82
8533;BMP280;4304;53.876;10.662;2024-03-06T14:02:53;102727.63;;;5.67
8533;BMP280;4304;53.876;10.662;2024-03-06T14:05:18;102733.38;;;5.86
8533;BMP280;4304;53.876;10.662;2024-03-06T14:07:49;102726.78;;;5.67
8533;BMP280;4304;53.876;10.662;2024-03-06T14:10:15;102730.69;;;5.92
8533;BMP280;4304;53.876;10.662;2024-03-06T14:12:41;102733.06;;;6.03
8533;BMP280;4304;53.876;10.662;2024-03-06T14:15:07;102747.69;;;6.03
8533;BMP280;4304;53.876;10.662;2024-03-06T14:17:38;102741.16;;;5.81
8533;BMP280;4304;53.876;10.662;2024-03-06T14:20:04;102744.09;;;5.59
8533;BMP280;4304;53.876;10.662;2024-03-06T14:22:29;102738.78;;;5.68
8533;BMP280;4304;53.876;10.662;2024-03-06T14:24:55;102741.63;;;5.51
8533;BMP280;4304;53.876;10.662;2024-03-06T14:27:20;102739.75;;;5.61
8533;BMP280;4304;53.876;10.662;2024-03-06T14:29:46;102746.69;;;5.59